HSOB

El Obeid Airport

Al-Ubayyid, Sudan
METAR HSOB 211300Z 24006KT 9999 SCT050 36/17 Q1010
Observed Flight Rules
Jul-21 @ 13:00 UTC (45 minutes ago) Visual Flight Rules
Wind Visibility Clouds
240° at 6 knots 10,000+ meters
  • Scattered at 5,000' AGL
Temperatures Readings
Current 36°C / 97°F
Dewpoint 17°C / 63°F
Humidity 32%
Altimeter 29.82" Hg
Pressure 1010 hPa
Elevation 574
METAR HSOB 211300Z 24006KT 9999 SCT050 36/17 Q1010
Observed Flight Rules
Jul-21 @ 13:00 UTC
(45 minutes ago)
VFR
Wind Visibility
240° at 6 knots 10,000+ meters
Clouds
  • Scattered at 5,000' AGL
Temperature Dewpoint
36°C / 97°F 17°C / 63°F
Humidity Altimeter Pressure
32% 29.82" Hg 1010 hPa